sensor_id;sensor_type;location;lat;lon;timestamp;temperature;humidity
44117;DHT22;29781;49.480;8.512;2022-10-16T00:00:44;16.80;99.90
44117;DHT22;29781;49.480;8.512;2022-10-16T00:03:10;16.70;99.90
44117;DHT22;29781;49.480;8.512;2022-10-16T00:05:42;16.70;99.90
44117;DHT22;29781;49.480;8.512;2022-10-16T00:08:09;16.70;99.90
44117;DHT22;29781;49.480;8.512;2022-10-16T00:10:35;16.70;99.90
44117;DHT22;29781;49.480;8.512;2022-10-16T00:13:01;16.60;99.90
44117;DHT22;29781;49.480;8.512;2022-10-16T00:15:27;16.50;99.90
44117;DHT22;29781;49.480;8.512;2022-10-16T00:17:53;16.40;99.90
44117;DHT22;29781;49.480;8.512;2022-10-16T00:20:18;16.40;99.90
44117;DHT22;29781;49.480;8.512;2022-10-16T00:22:44;16.20;99.90
44117;DHT22;29781;49.480;8.512;2022-10-16T00:25:10;16.20;99.90
44117;DHT22;29781;49.480;8.512;2022-10-16T00:27:35;16.30;99.90
44117;DHT22;29781;49.480;8.512;2022-10-16T00:30:01;16.30;99.90
44117;DHT22;29781;49.480;8.512;2022-10-16T00:32:26;16.40;99.90
44117;DHT22;29781;49.480;8.512;2022-10-16T00:34:52;16.20;99.90
44117;DHT22;29781;49.480;8.512;2022-10-16T00:37:20;16.10;99.90
44117;DHT22;29781;49.480;8.512;2022-10-16T00:39:46;16.10;99.90
44117;DHT22;29781;49.480;8.512;2022-10-16T00:42:16;16.20;99.90
44117;DHT22;29781;49.480;8.512;2022-10-16T00:44:43;16.20;99.90
44117;DHT22;29781;49.480;8.512;2022-10-16T00:47:11;16.20;99.90
44117;DHT22;29781;49.480;8.512;2022-10-16T00:49:38;16.40;99.90
44117;DHT22;29781;49.480;8.512;2022-10-16T00:52:05;16.40;99.90
44117;DHT22;29781;49.480;8.512;2022-10-16T00:54:32;16.40;99.90
44117;DHT22;29781;49.480;8.512;2022-10-16T00:57:03;16.50;99.90
44117;DHT22;29781;49.480;8.512;2022-10-16T00:59:35;16.50;99.90
44117;DHT22;29781;49.480;8.512;2022-10-16T01:02:03;16.50;99.90
44117;DHT22;29781;49.480;8.512;2022-10-16T01:04:34;16.50;99.90
44117;DHT22;29781;49.480;8.512;2022-10-16T01:07:10;16.50;99.90
44117;DHT22;29781;49.480;8.512;2022-10-16T01:18:15;16.50;99.90
44117;DHT22;29781;49.480;8.512;2022-10-16T01:29:07;16.60;99.90
44117;DHT22;29781;49.480;8.512;2022-10-16T01:31:38;16.60;99.90
44117;DHT22;29781;49.480;8.512;2022-10-16T01:34:21;16.60;99.90
44117;DHT22;29781;49.480;8.512;2022-10-16T01:36:56;16.60;99.90
44117;DHT22;29781;49.480;8.512;2022-10-16T01:39:29;16.60;99.90
44117;DHT22;29781;49.480;8.512;2022-10-16T01:42:02;16.60;99.90
44117;DHT22;29781;49.480;8.512;2022-10-16T01:44:31;16.60;99.90
44117;DHT22;29781;49.480;8.512;2022-10-16T01:46:59;16.70;99.90
44117;DHT22;29781;49.480;8.512;2022-10-16T01:49:27;16.70;99.90
44117;DHT22;29781;49.480;8.512;2022-10-16T01:51:56;16.70;99.90
44117;DHT22;29781;49.480;8.512;2022-10-16T01:54:26;16.60;99.90
44117;DHT22;29781;49.480;8.512;2022-10-16T01:56:53;16.60;99.90
44117;DHT22;29781;49.480;8.512;2022-10-16T01:59:22;16.70;99.90
44117;DHT22;29781;49.480;8.512;2022-10-16T02:01:52;16.60;99.90
44117;DHT22;29781;49.480;8.512;2022-10-16T02:04:42;16.60;99.90
44117;DHT22;29781;49.480;8.512;2022-10-16T02:07:09;16.60;99.90
44117;DHT22;29781;49.480;8.512;2022-10-16T02:09:35;16.60;99.90
44117;DHT22;29781;49.480;8.512;2022-10-16T02:12:08;16.60;99.90
44117;DHT22;29781;49.480;8.512;2022-10-16T02:14:38;16.60;99.90
44117;DHT22;29781;49.480;8.512;2022-10-16T02:17:16;16.50;99.90
44117;DHT22;29781;49.480;8.512;2022-10-16T02:19:42;16.50;99.90
44117;DHT22;29781;49.480;8.512;2022-10-16T02:22:16;16.50;99.90
44117;DHT22;29781;49.480;8.512;2022-10-16T02:27:16;16.40;99.90
44117;DHT22;29781;49.480;8.512;2022-10-16T02:29:49;16.40;99.90
44117;DHT22;29781;49.480;8.512;2022-10-16T02:32:19;16.40;99.90
44117;DHT22;29781;49.480;8.512;2022-10-16T02:34:48;16.50;99.90
44117;DHT22;29781;49.480;8.512;2022-10-16T02:37:15;16.40;99.90
44117;DHT22;29781;49.480;8.512;2022-10-16T02:39:41;16.50;99.90
44117;DHT22;29781;49.480;8.512;2022-10-16T02:42:12;16.40;99.90
44117;DHT22;29781;49.480;8.512;2022-10-16T02:44:38;16.40;99.90
44117;DHT22;29781;49.480;8.512;2022-10-16T02:47:04;16.50;99.90
44117;DHT22;29781;49.480;8.512;2022-10-16T02:49:29;16.50;99.90
44117;DHT22;29781;49.480;8.512;2022-10-16T02:51:55;16.40;99.90
44117;DHT22;29781;49.480;8.512;2022-10-16T02:54:21;16.50;99.90
44117;DHT22;29781;49.480;8.512;2022-10-16T02:56:46;16.50;99.90
44117;DHT22;29781;49.480;8.512;2022-10-16T02:59:12;16.50;99.90
44117;DHT22;29781;49.480;8.512;2022-10-16T03:01:37;16.40;99.90
44117;DHT22;29781;49.480;8.512;2022-10-16T03:04:03;16.50;99.90
44117;DHT22;29781;49.480;8.512;2022-10-16T03:06:29;16.50;99.90
44117;DHT22;29781;49.480;8.512;2022-10-16T03:08:54;16.40;99.90
44117;DHT22;29781;49.480;8.512;2022-10-16T03:11:20;16.50;99.90
44117;DHT22;29781;49.480;8.512;2022-10-16T03:13:45;16.40;99.90
44117;DHT22;29781;49.480;8.512;2022-10-16T03:16:11;16.50;99.90
44117;DHT22;29781;49.480;8.512;2022-10-16T03:18:37;16.40;99.90
44117;DHT22;29781;49.480;8.512;2022-10-16T03:21:02;16.40;99.90
44117;DHT22;29781;49.480;8.512;2022-10-16T03:23:28;16.40;99.90
44117;DHT22;29781;49.480;8.512;2022-10-16T03:25:54;16.40;99.90
44117;DHT22;29781;49.480;8.512;2022-10-16T03:28:20;16.40;99.90
44117;DHT22;29781;49.480;8.512;2022-10-16T03:30:45;16.40;99.90
44117;DHT22;29781;49.480;8.512;2022-10-16T03:33:11;16.40;99.90
44117;DHT22;29781;49.480;8.512;2022-10-16T03:35:37;16.50;99.90
44117;DHT22;29781;49.480;8.512;2022-10-16T03:38:03;16.40;99.90
44117;DHT22;29781;49.480;8.512;2022-10-16T03:40:29;16.50;99.90
44117;DHT22;29781;49.480;8.512;2022-10-16T03:42:55;16.40;99.90
44117;DHT22;29781;49.480;8.512;2022-10-16T03:45:23;16.50;99.90
44117;DHT22;29781;49.480;8.512;2022-10-16T03:47:48;16.40;99.90
44117;DHT22;29781;49.480;8.512;2022-10-16T03:50:14;16.40;99.90
44117;DHT22;29781;49.480;8.512;2022-10-16T03:52:40;16.40;99.90
44117;DHT22;29781;49.480;8.512;2022-10-16T03:55:06;16.40;99.90
44117;DHT22;29781;49.480;8.512;2022-10-16T03:57:32;16.50;99.90
44117;DHT22;29781;49.480;8.512;2022-10-16T03:59:57;16.50;99.90
44117;DHT22;29781;49.480;8.512;2022-10-16T04:02:23;16.50;99.90
44117;DHT22;29781;49.480;8.512;2022-10-16T04:04:49;16.50;99.90
44117;DHT22;29781;49.480;8.512;2022-10-16T04:07:14;16.50;99.90
44117;DHT22;29781;49.480;8.512;2022-10-16T04:09:40;16.50;99.90
44117;DHT22;29781;49.480;8.512;2022-10-16T04:12:06;16.50;99.90
44117;DHT22;29781;49.480;8.512;2022-10-16T04:14:31;16.50;99.90
44117;DHT22;29781;49.480;8.512;2022-10-16T04:16:57;16.50;99.90
44117;DHT22;29781;49.480;8.512;2022-10-16T04:19:22;16.50;99.90
44117;DHT22;29781;49.480;8.512;2022-10-16T04:21:48;16.60;99.90
44117;DHT22;29781;49.480;8.512;2022-10-16T04:24:13;16.60;99.90
44117;DHT22;29781;49.480;8.512;2022-10-16T04:26:39;16.50;99.90
44117;DHT22;29781;49.480;8.512;2022-10-16T04:29:05;16.50;99.90
44117;DHT22;29781;49.480;8.512;2022-10-16T04:31:31;16.50;99.90
44117;DHT22;29781;49.480;8.512;2022-10-16T04:33:57;16.60;99.90
44117;DHT22;29781;49.480;8.512;2022-10-16T04:36:22;16.50;99.90
44117;DHT22;29781;49.480;8.512;2022-10-16T04:38:48;16.50;99.90
44117;DHT22;29781;49.480;8.512;2022-10-16T04:41:13;16.50;99.90
44117;DHT22;29781;49.480;8.512;2022-10-16T04:43:39;16.50;99.90
44117;DHT22;29781;49.480;8.512;2022-10-16T04:46:05;16.50;99.90
44117;DHT22;29781;49.480;8.512;2022-10-16T04:48:31;16.50;99.90
44117;DHT22;29781;49.480;8.512;2022-10-16T04:50:57;16.50;99.90
44117;DHT22;29781;49.480;8.512;2022-10-16T04:53:22;16.50;99.90
44117;DHT22;29781;49.480;8.512;2022-10-16T04:55:49;16.40;99.90
44117;DHT22;29781;49.480;8.512;2022-10-16T04:58:14;16.40;99.90
44117;DHT22;29781;49.480;8.512;2022-10-16T05:00:40;16.40;99.90
44117;DHT22;29781;49.480;8.512;2022-10-16T05:03:06;16.40;99.90
44117;DHT22;29781;49.480;8.512;2022-10-16T05:05:34;16.40;99.90
44117;DHT22;29781;49.480;8.512;2022-10-16T05:08:00;16.40;99.90
44117;DHT22;29781;49.480;8.512;2022-10-16T05:10:26;16.40;99.90
44117;DHT22;29781;49.480;8.512;2022-10-16T05:12:51;16.30;99.90
44117;DHT22;29781;49.480;8.512;2022-10-16T05:15:17;16.30;99.90
44117;DHT22;29781;49.480;8.512;2022-10-16T05:17:44;16.30;99.90
44117;DHT22;29781;49.480;8.512;2022-10-16T05:20:10;16.30;99.90
44117;DHT22;29781;49.480;8.512;2022-10-16T05:22:36;16.30;99.90
44117;DHT22;29781;49.480;8.512;2022-10-16T05:25:01;16.30;99.90
44117;DHT22;29781;49.480;8.512;2022-10-16T05:27:27;16.30;99.90
44117;DHT22;29781;49.480;8.512;2022-10-16T05:29:52;16.30;99.90
44117;DHT22;29781;49.480;8.512;2022-10-16T05:32:18;16.30;99.90
44117;DHT22;29781;49.480;8.512;2022-10-16T05:34:44;16.40;99.90
44117;DHT22;29781;49.480;8.512;2022-10-16T05:37:11;16.40;99.90
44117;DHT22;29781;49.480;8.512;2022-10-16T05:39:38;16.40;99.90
44117;DHT22;29781;49.480;8.512;2022-10-16T05:42:04;16.40;99.90
44117;DHT22;29781;49.480;8.512;2022-10-16T05:44:31;16.40;99.90
44117;DHT22;29781;49.480;8.512;2022-10-16T05:46:57;16.40;99.90
44117;DHT22;29781;49.480;8.512;2022-10-16T05:49:22;16.50;99.90
44117;DHT22;29781;49.480;8.512;2022-10-16T05:51:48;16.50;99.90
44117;DHT22;29781;49.480;8.512;2022-10-16T05:54:13;16.40;99.90
44117;DHT22;29781;49.480;8.512;2022-10-16T05:56:39;16.40;99.90
44117;DHT22;29781;49.480;8.512;2022-10-16T05:59:05;16.50;99.90
44117;DHT22;29781;49.480;8.512;2022-10-16T06:01:31;16.50;99.90
44117;DHT22;29781;49.480;8.512;2022-10-16T06:03:57;16.60;99.90
44117;DHT22;29781;49.480;8.512;2022-10-16T06:06:25;16.60;99.90
44117;DHT22;29781;49.480;8.512;2022-10-16T06:08:52;16.70;99.90
44117;DHT22;29781;49.480;8.512;2022-10-16T06:11:23;16.70;99.90
44117;DHT22;29781;49.480;8.512;2022-10-16T06:13:53;16.60;99.90
44117;DHT22;29781;49.480;8.512;2022-10-16T06:16:20;16.60;99.90
44117;DHT22;29781;49.480;8.512;2022-10-16T06:18:46;16.60;99.90
44117;DHT22;29781;49.480;8.512;2022-10-16T06:21:17;16.50;99.90
44117;DHT22;29781;49.480;8.512;2022-10-16T06:23:44;16.50;99.90
44117;DHT22;29781;49.480;8.512;2022-10-16T06:26:13;16.60;99.90
44117;DHT22;29781;49.480;8.512;2022-10-16T06:28:39;16.60;99.90
44117;DHT22;29781;49.480;8.512;2022-10-16T06:31:06;16.60;99.90
44117;DHT22;29781;49.480;8.512;2022-10-16T06:33:32;16.60;99.90
44117;DHT22;29781;49.480;8.512;2022-10-16T06:36:08;16.60;99.90
44117;DHT22;29781;49.480;8.512;2022-10-16T06:38:35;16.60;99.90
44117;DHT22;29781;49.480;8.512;2022-10-16T06:41:01;16.60;99.90
44117;DHT22;29781;49.480;8.512;2022-10-16T06:43:28;16.50;99.90
44117;DHT22;29781;49.480;8.512;2022-10-16T06:45:58;16.50;99.90
44117;DHT22;29781;49.480;8.512;2022-10-16T06:48:24;16.30;99.90
44117;DHT22;29781;49.480;8.512;2022-10-16T06:51:01;16.30;99.90
44117;DHT22;29781;49.480;8.512;2022-10-16T06:53:29;16.40;99.90
44117;DHT22;29781;49.480;8.512;2022-10-16T06:55:56;16.50;99.90
44117;DHT22;29781;49.480;8.512;2022-10-16T06:58:22;16.40;99.90
44117;DHT22;29781;49.480;8.512;2022-10-16T07:00:48;16.50;99.90
44117;DHT22;29781;49.480;8.512;2022-10-16T07:03:14;16.60;99.90
44117;DHT22;29781;49.480;8.512;2022-10-16T07:05:41;16.60;99.90
44117;DHT22;29781;49.480;8.512;2022-10-16T07:08:07;16.70;99.90
44117;DHT22;29781;49.480;8.512;2022-10-16T07:10:33;16.70;99.90
44117;DHT22;29781;49.480;8.512;2022-10-16T07:12:59;16.70;99.90
44117;DHT22;29781;49.480;8.512;2022-10-16T07:15:26;16.70;99.90
44117;DHT22;29781;49.480;8.512;2022-10-16T07:17:51;16.70;99.90
44117;DHT22;29781;49.480;8.512;2022-10-16T07:20:17;16.60;99.90
44117;DHT22;29781;49.480;8.512;2022-10-16T07:22:43;16.60;99.90
44117;DHT22;29781;49.480;8.512;2022-10-16T07:25:09;16.70;99.90
44117;DHT22;29781;49.480;8.512;2022-10-16T07:27:35;16.70;99.90
44117;DHT22;29781;49.480;8.512;2022-10-16T07:30:00;16.60;99.90
44117;DHT22;29781;49.480;8.512;2022-10-16T07:32:26;16.70;99.90
44117;DHT22;29781;49.480;8.512;2022-10-16T07:34:52;16.70;99.90
44117;DHT22;29781;49.480;8.512;2022-10-16T07:37:18;16.70;99.90
44117;DHT22;29781;49.480;8.512;2022-10-16T07:39:44;16.70;99.90
44117;DHT22;29781;49.480;8.512;2022-10-16T07:42:10;16.80;99.90
44117;DHT22;29781;49.480;8.512;2022-10-16T07:44:35;16.80;99.90
44117;DHT22;29781;49.480;8.512;2022-10-16T07:47:01;16.80;99.90
44117;DHT22;29781;49.480;8.512;2022-10-16T07:49:27;16.90;99.90
44117;DHT22;29781;49.480;8.512;2022-10-16T07:51:52;16.90;99.90
44117;DHT22;29781;49.480;8.512;2022-10-16T07:54:18;16.90;99.90
44117;DHT22;29781;49.480;8.512;2022-10-16T07:56:44;16.90;99.90
44117;DHT22;29781;49.480;8.512;2022-10-16T07:59:10;16.90;99.90
44117;DHT22;29781;49.480;8.512;2022-10-16T08:01:35;16.90;99.90
44117;DHT22;29781;49.480;8.512;2022-10-16T08:04:01;16.80;99.90
44117;DHT22;29781;49.480;8.512;2022-10-16T08:06:27;16.90;99.90
44117;DHT22;29781;49.480;8.512;2022-10-16T08:08:52;16.90;99.90
44117;DHT22;29781;49.480;8.512;2022-10-16T08:11:18;16.90;99.90
44117;DHT22;29781;49.480;8.512;2022-10-16T08:13:44;16.80;99.90
44117;DHT22;29781;49.480;8.512;2022-10-16T08:16:10;16.80;99.90
44117;DHT22;29781;49.480;8.512;2022-10-16T08:18:38;16.80;99.90
44117;DHT22;29781;49.480;8.512;2022-10-16T08:21:05;16.80;99.90
44117;DHT22;29781;49.480;8.512;2022-10-16T08:23:32;16.90;99.90
44117;DHT22;29781;49.480;8.512;2022-10-16T08:26:04;16.90;99.90
44117;DHT22;29781;49.480;8.512;2022-10-16T08:28:30;16.90;99.90
44117;DHT22;29781;49.480;8.512;2022-10-16T08:30:56;16.90;99.90
44117;DHT22;29781;49.480;8.512;2022-10-16T08:33:29;16.90;99.90
44117;DHT22;29781;49.480;8.512;2022-10-16T08:35:55;16.90;99.90
44117;DHT22;29781;49.480;8.512;2022-10-16T08:38:21;17.00;99.90
44117;DHT22;29781;49.480;8.512;2022-10-16T08:40:47;17.00;99.90
44117;DHT22;29781;49.480;8.512;2022-10-16T08:51:22;17.00;99.90
44117;DHT22;29781;49.480;8.512;2022-10-16T08:54:01;17.10;99.90
44117;DHT22;29781;49.480;8.512;2022-10-16T08:56:28;17.00;99.90
44117;DHT22;29781;49.480;8.512;2022-10-16T08:58:54;16.90;99.90
44117;DHT22;29781;49.480;8.512;2022-10-16T09:01:22;16.80;99.90
44117;DHT22;29781;49.480;8.512;2022-10-16T09:07:09;16.60;99.90
44117;DHT22;29781;49.480;8.512;2022-10-16T09:09:54;16.50;99.90
44117;DHT22;29781;49.480;8.512;2022-10-16T09:12:33;16.50;99.90
44117;DHT22;29781;49.480;8.512;2022-10-16T09:15:11;16.50;99.90
44117;DHT22;29781;49.480;8.512;2022-10-16T09:20:32;16.70;99.90
44117;DHT22;29781;49.480;8.512;2022-10-16T09:23:12;16.90;99.90
44117;DHT22;29781;49.480;8.512;2022-10-16T09:25:39;17.00;99.90
44117;DHT22;29781;49.480;8.512;2022-10-16T09:28:08;17.00;99.90
44117;DHT22;29781;49.480;8.512;2022-10-16T09:30:38;17.00;99.90
44117;DHT22;29781;49.480;8.512;2022-10-16T09:33:06;17.10;99.90
44117;DHT22;29781;49.480;8.512;2022-10-16T09:35:37;17.10;99.90
44117;DHT22;29781;49.480;8.512;2022-10-16T09:38:03;17.10;99.90
44117;DHT22;29781;49.480;8.512;2022-10-16T09:40:36;17.20;99.90
44117;DHT22;29781;49.480;8.512;2022-10-16T09:45:36;17.30;99.90
44117;DHT22;29781;49.480;8.512;2022-10-16T09:48:11;17.30;99.90
44117;DHT22;29781;49.480;8.512;2022-10-16T09:50:38;17.30;99.90
44117;DHT22;29781;49.480;8.512;2022-10-16T09:53:21;17.40;99.90
44117;DHT22;29781;49.480;8.512;2022-10-16T09:55:52;17.30;99.90
44117;DHT22;29781;49.480;8.512;2022-10-16T09:58:21;17.40;99.90
44117;DHT22;29781;49.480;8.512;2022-10-16T10:00:53;17.50;99.90
44117;DHT22;29781;49.480;8.512;2022-10-16T10:03:35;17.50;99.90
44117;DHT22;29781;49.480;8.512;2022-10-16T10:06:22;17.60;99.90
44117;DHT22;29781;49.480;8.512;2022-10-16T10:11:41;17.70;99.90
44117;DHT22;29781;49.480;8.512;2022-10-16T10:14:34;17.70;99.90
44117;DHT22;29781;49.480;8.512;2022-10-16T10:19:40;18.00;99.90
44117;DHT22;29781;49.480;8.512;2022-10-16T10:22:26;18.30;99.90
44117;DHT22;29781;49.480;8.512;2022-10-16T10:34:04;18.70;99.90
44117;DHT22;29781;49.480;8.512;2022-10-16T10:36:39;18.50;99.90
44117;DHT22;29781;49.480;8.512;2022-10-16T10:39:15;18.50;99.90
44117;DHT22;29781;49.480;8.512;2022-10-16T10:45:18;18.70;99.90
44117;DHT22;29781;49.480;8.512;2022-10-16T10:53:02;19.00;99.90
44117;DHT22;29781;49.480;8.512;2022-10-16T10:55:51;19.00;99.90
44117;DHT22;29781;49.480;8.512;2022-10-16T11:03:59;19.00;99.90
44117;DHT22;29781;49.480;8.512;2022-10-16T11:06:32;19.10;99.90
44117;DHT22;29781;49.480;8.512;2022-10-16T11:09:23;19.10;99.90
44117;DHT22;29781;49.480;8.512;2022-10-16T11:11:59;19.30;99.90
44117;DHT22;29781;49.480;8.512;2022-10-16T11:14:34;19.50;99.90
44117;DHT22;29781;49.480;8.512;2022-10-16T11:25:16;19.60;99.90
44117;DHT22;29781;49.480;8.512;2022-10-16T11:27:50;19.60;99.90
44117;DHT22;29781;49.480;8.512;2022-10-16T11:30:21;19.70;99.90
44117;DHT22;29781;49.480;8.512;2022-10-16T11:38:20;19.80;99.90
44117;DHT22;29781;49.480;8.512;2022-10-16T11:40:54;19.80;99.90
44117;DHT22;29781;49.480;8.512;2022-10-16T11:43:32;19.70;99.90
44117;DHT22;29781;49.480;8.512;2022-10-16T11:46:13;19.70;99.90
44117;DHT22;29781;49.480;8.512;2022-10-16T11:56:50;19.40;99.90
44117;DHT22;29781;49.480;8.512;2022-10-16T12:07:36;19.30;99.90
44117;DHT22;29781;49.480;8.512;2022-10-16T12:10:25;19.30;99.90
44117;DHT22;29781;49.480;8.512;2022-10-16T12:12:51;19.40;99.90
44117;DHT22;29781;49.480;8.512;2022-10-16T12:15:27;19.40;99.90
44117;DHT22;29781;49.480;8.512;2022-10-16T12:17:54;19.40;99.90
44117;DHT22;29781;49.480;8.512;2022-10-16T12:20:30;19.40;99.90
44117;DHT22;29781;49.480;8.512;2022-10-16T12:23:03;19.40;99.90
44117;DHT22;29781;49.480;8.512;2022-10-16T12:25:32;19.30;99.90
44117;DHT22;29781;49.480;8.512;2022-10-16T12:30:28;19.30;99.90
44117;DHT22;29781;49.480;8.512;2022-10-16T12:33:00;19.30;99.90
44117;DHT22;29781;49.480;8.512;2022-10-16T12:35:30;19.30;99.90
44117;DHT22;29781;49.480;8.512;2022-10-16T12:38:08;19.40;99.90
44117;DHT22;29781;49.480;8.512;2022-10-16T12:40:38;19.40;99.90
44117;DHT22;29781;49.480;8.512;2022-10-16T12:45:59;19.50;99.90
44117;DHT22;29781;49.480;8.512;2022-10-16T12:48:25;19.60;99.90
44117;DHT22;29781;49.480;8.512;2022-10-16T12:50:51;19.60;99.90
44117;DHT22;29781;49.480;8.512;2022-10-16T12:53:20;19.50;99.90
44117;DHT22;29781;49.480;8.512;2022-10-16T12:55:58;19.50;99.90
44117;DHT22;29781;49.480;8.512;2022-10-16T12:58:49;19.40;99.90
44117;DHT22;29781;49.480;8.512;2022-10-16T13:01:29;19.50;99.90
44117;DHT22;29781;49.480;8.512;2022-10-16T13:04:08;19.60;99.90
44117;DHT22;29781;49.480;8.512;2022-10-16T13:09:33;19.80;99.90
44117;DHT22;29781;49.480;8.512;2022-10-16T13:12:21;19.80;99.90
44117;DHT22;29781;49.480;8.512;2022-10-16T13:18:09;19.70;99.90
44117;DHT22;29781;49.480;8.512;2022-10-16T13:23:49;19.60;99.90
44117;DHT22;29781;49.480;8.512;2022-10-16T13:26:29;19.60;99.90
44117;DHT22;29781;49.480;8.512;2022-10-16T13:29:00;19.60;99.90
44117;DHT22;29781;49.480;8.512;2022-10-16T13:31:26;19.60;99.90
44117;DHT22;29781;49.480;8.512;2022-10-16T13:33:56;19.50;99.90
44117;DHT22;29781;49.480;8.512;2022-10-16T13:39:20;19.50;99.90
44117;DHT22;29781;49.480;8.512;2022-10-16T13:44:34;19.50;99.90
44117;DHT22;29781;49.480;8.512;2022-10-16T13:47:03;19.50;99.90
44117;DHT22;29781;49.480;8.512;2022-10-16T13:49:29;19.50;99.90
44117;DHT22;29781;49.480;8.512;2022-10-16T13:51:59;19.50;99.90
44117;DHT22;29781;49.480;8.512;2022-10-16T13:54:26;19.60;99.90
44117;DHT22;29781;49.480;8.512;2022-10-16T13:56:54;19.60;99.90
44117;DHT22;29781;49.480;8.512;2022-10-16T13:59:32;19.60;99.90
44117;DHT22;29781;49.480;8.512;2022-10-16T14:01:58;19.70;99.90
44117;DHT22;29781;49.480;8.512;2022-10-16T14:04:26;19.60;99.90
44117;DHT22;29781;49.480;8.512;2022-10-16T14:06:53;19.60;99.90
44117;DHT22;29781;49.480;8.512;2022-10-16T14:09:31;19.60;99.90
44117;DHT22;29781;49.480;8.512;2022-10-16T14:12:17;19.60;99.90
44117;DHT22;29781;49.480;8.512;2022-10-16T14:14:52;19.60;99.90
44117;DHT22;29781;49.480;8.512;2022-10-16T14:17:24;19.60;99.90
44117;DHT22;29781;49.480;8.512;2022-10-16T14:19:56;19.60;99.90
44117;DHT22;29781;49.480;8.512;2022-10-16T14:22:40;19.60;99.90
44117;DHT22;29781;49.480;8.512;2022-10-16T14:25:23;19.50;99.90
44117;DHT22;29781;49.480;8.512;2022-10-16T14:30:24;19.40;99.90
44117;DHT22;29781;49.480;8.512;2022-10-16T14:33:01;19.50;99.90
44117;DHT22;29781;49.480;8.512;2022-10-16T14:35:36;19.40;99.90
44117;DHT22;29781;49.480;8.512;2022-10-16T14:38:03;19.40;99.90
44117;DHT22;29781;49.480;8.512;2022-10-16T14:40:35;19.40;99.90
44117;DHT22;29781;49.480;8.512;2022-10-16T14:43:02;19.40;99.90
44117;DHT22;29781;49.480;8.512;2022-10-16T14:45:32;19.50;99.90
44117;DHT22;29781;49.480;8.512;2022-10-16T14:48:01;19.40;99.90
44117;DHT22;29781;49.480;8.512;2022-10-16T14:50:28;19.40;99.90
44117;DHT22;29781;49.480;8.512;2022-10-16T14:52:54;19.40;99.90
44117;DHT22;29781;49.480;8.512;2022-10-16T14:55:20;19.40;99.90
44117;DHT22;29781;49.480;8.512;2022-10-16T14:57:46;19.40;99.90
44117;DHT22;29781;49.480;8.512;2022-10-16T15:00:19;19.40;99.90
44117;DHT22;29781;49.480;8.512;2022-10-16T15:02:46;19.40;99.90
44117;DHT22;29781;49.480;8.512;2022-10-16T15:05:15;19.40;99.90
44117;DHT22;29781;49.480;8.512;2022-10-16T15:07:41;19.40;99.90
44117;DHT22;29781;49.480;8.512;2022-10-16T15:10:07;19.50;99.90
44117;DHT22;29781;49.480;8.512;2022-10-16T15:12:33;19.50;99.90
44117;DHT22;29781;49.480;8.512;2022-10-16T15:14:58;19.50;99.90
44117;DHT22;29781;49.480;8.512;2022-10-16T15:17:24;19.60;99.90
44117;DHT22;29781;49.480;8.512;2022-10-16T15:19:50;19.70;99.90
44117;DHT22;29781;49.480;8.512;2022-10-16T15:22:16;19.70;99.90
44117;DHT22;29781;49.480;8.512;2022-10-16T15:24:42;19.70;99.90
44117;DHT22;29781;49.480;8.512;2022-10-16T15:27:08;19.70;99.90
44117;DHT22;29781;49.480;8.512;2022-10-16T15:29:34;19.80;99.90
44117;DHT22;29781;49.480;8.512;2022-10-16T15:31:59;19.70;99.90
44117;DHT22;29781;49.480;8.512;2022-10-16T15:34:25;19.60;99.90
44117;DHT22;29781;49.480;8.512;2022-10-16T15:36:51;19.60;99.90
44117;DHT22;29781;49.480;8.512;2022-10-16T15:39:18;19.60;99.90
44117;DHT22;29781;49.480;8.512;2022-10-16T15:41:45;19.60;99.90
44117;DHT22;29781;49.480;8.512;2022-10-16T15:44:19;19.60;99.90
44117;DHT22;29781;49.480;8.512;2022-10-16T15:46:45;19.70;99.90
44117;DHT22;29781;49.480;8.512;2022-10-16T15:49:11;19.80;99.90
44117;DHT22;29781;49.480;8.512;2022-10-16T15:51:38;19.80;99.90
44117;DHT22;29781;49.480;8.512;2022-10-16T15:54:04;19.80;99.90
44117;DHT22;29781;49.480;8.512;2022-10-16T15:56:30;19.80;99.90
44117;DHT22;29781;49.480;8.512;2022-10-16T15:58:59;19.80;99.90
44117;DHT22;29781;49.480;8.512;2022-10-16T16:01:25;19.80;99.90
44117;DHT22;29781;49.480;8.512;2022-10-16T16:03:55;19.80;99.90
44117;DHT22;29781;49.480;8.512;2022-10-16T16:06:22;19.80;99.90
44117;DHT22;29781;49.480;8.512;2022-10-16T16:08:49;19.60;99.90
44117;DHT22;29781;49.480;8.512;2022-10-16T16:11:16;19.60;99.90
44117;DHT22;29781;49.480;8.512;2022-10-16T16:13:42;19.50;99.90
44117;DHT22;29781;49.480;8.512;2022-10-16T16:16:12;19.40;99.90
44117;DHT22;29781;49.480;8.512;2022-10-16T16:18:39;19.50;99.90
44117;DHT22;29781;49.480;8.512;2022-10-16T16:21:05;19.50;99.90
44117;DHT22;29781;49.480;8.512;2022-10-16T16:23:31;19.50;99.90
44117;DHT22;29781;49.480;8.512;2022-10-16T16:26:06;19.40;99.90
44117;DHT22;29781;49.480;8.512;2022-10-16T16:28:33;19.40;99.90
44117;DHT22;29781;49.480;8.512;2022-10-16T16:30:58;19.30;99.90
44117;DHT22;29781;49.480;8.512;2022-10-16T16:33:24;19.40;99.90
44117;DHT22;29781;49.480;8.512;2022-10-16T16:35:50;19.30;99.90
44117;DHT22;29781;49.480;8.512;2022-10-16T16:38:15;19.20;99.90
44117;DHT22;29781;49.480;8.512;2022-10-16T16:40:41;19.20;99.90
44117;DHT22;29781;49.480;8.512;2022-10-16T16:43:07;19.10;99.90
44117;DHT22;29781;49.480;8.512;2022-10-16T16:45:35;19.00;99.90
44117;DHT22;29781;49.480;8.512;2022-10-16T16:48:01;18.90;99.90
44117;DHT22;29781;49.480;8.512;2022-10-16T16:50:26;18.80;99.90
44117;DHT22;29781;49.480;8.512;2022-10-16T16:52:52;18.70;99.90
44117;DHT22;29781;49.480;8.512;2022-10-16T16:55:17;18.80;99.90
44117;DHT22;29781;49.480;8.512;2022-10-16T16:57:43;18.80;99.90
44117;DHT22;29781;49.480;8.512;2022-10-16T17:00:09;18.70;99.90
44117;DHT22;29781;49.480;8.512;2022-10-16T17:02:35;18.70;99.90
44117;DHT22;29781;49.480;8.512;2022-10-16T17:05:00;18.70;99.90
44117;DHT22;29781;49.480;8.512;2022-10-16T17:07:27;18.70;99.90
44117;DHT22;29781;49.480;8.512;2022-10-16T17:09:55;18.70;99.90
44117;DHT22;29781;49.480;8.512;2022-10-16T17:12:21;18.60;99.90
44117;DHT22;29781;49.480;8.512;2022-10-16T17:14:47;18.50;99.90
44117;DHT22;29781;49.480;8.512;2022-10-16T17:17:12;18.50;99.90
44117;DHT22;29781;49.480;8.512;2022-10-16T17:19:38;18.50;99.90
44117;DHT22;29781;49.480;8.512;2022-10-16T17:22:04;18.60;99.90
44117;DHT22;29781;49.480;8.512;2022-10-16T17:24:30;18.60;99.90
44117;DHT22;29781;49.480;8.512;2022-10-16T17:26:55;18.50;99.90
44117;DHT22;29781;49.480;8.512;2022-10-16T17:29:21;18.40;99.90
44117;DHT22;29781;49.480;8.512;2022-10-16T17:31:47;18.40;99.90
44117;DHT22;29781;49.480;8.512;2022-10-16T17:34:14;18.40;99.90
44117;DHT22;29781;49.480;8.512;2022-10-16T17:36:40;18.40;99.90